Details From LLSD - Sde Dov
To LLHA - Haifa
Flight Number -
Tags Decoded
Created
Modified
Stats Distance 49 nm / 90 km
Max Altitude 0 ft / 0 m
Waypoints 4
Social Downloads 2
Likes 0
Share VATSIM

Download

Looking for another format? Having issues loading an existing format? Contact us
Advertisement - Login to hide

Notes

Decoded

Route

LLSD ATLIT GALIM LLHA

ID Type Via Altitude Latitude Longitude Leg Dist Tot Dist Heading (true) Name
O LLSD APT - 0 ft / 0 m 32.10774˚ 34.77796˚ - 0 nm - Sde Dov
ATLIT FIX - 0 ft / 0 m 32.69646˚ 34.91495˚ 36 nm 36 nm 11° / 11° -
GALIM FIX - 0 ft / 0 m 32.83229˚ 34.96634˚ 8 nm 44 nm 18° / 18° -
O LLHA APT - 0 ft / 0 m 32.81644˚ 35.04169˚ 3 nm 48 nm 104° / 104° -

Altitude Profile

Advertisement - Login to hide

LLSD

Details ICAO LLSD (SDV)
Name Sde Dov
Region Israel
Timezone Asia/Jerusalem (UTC+3.0)
Stats Elevation 43 ft / 13 m (AMSL)
Location 32.114661° 34.782238°
Runways 1
Magnetic Variation 4.734° E

METAR

LLSD 271550Z 35011KT CAVOK 25/19 Q1010

Decode

TAF

TAF LLSD 271114Z 2712/2812 33012KT CAVOK BECMG 2715/2717 02007KT 9999 SCT018 BECMG 2721/2723 VRB03KT TEMPO 2723/2805 BKN016 BECMG 2805/2807 33012KT CAVOK TX26/2712Z TN22/2803Z

Decode

Departure Runways

ID Width Length Bearing (true) Bearing (mag) Surface Threshold Offset Overrun Length
03 98 ft / 30 m 5,704 ft / 1,738 m 27.61° 22.88° Asphalt 341 ft / 104 m 0 ft / 0 m
21 98 ft / 30 m 5,704 ft / 1,738 m 207.61° 202.88° Asphalt 230 ft / 70 m 0 ft / 0 m

LLHA

Details ICAO LLHA (HFA)
Name Haifa
Region Israel
Timezone Asia/Jerusalem (UTC+3.0)
Stats Elevation 28 ft / 9 m (AMSL)
Location 32.811125° 35.044139°
Runways 1
Magnetic Variation 4.818° E

METAR

LLHA 271550Z 32009KT CAVOK 25/19 Q1010

Decode

TAF

TAF LLHA 271115Z 2712/2812 33012KT CAVOK BECMG 2716/2718 34006KT 9999 SCT020 BECMG 2805/2807 33012KT CAVOK TX26/2712Z TN22/2803Z

Decode

Destination Runways

ID Width Length Bearing (true) Bearing (mag) Surface Threshold Offset Overrun Length
16 98 ft / 30 m 4,161 ft / 1,268 m 158.88° 154.06° Asphalt 164 ft / 50 m 0 ft / 0 m
34 98 ft / 30 m 4,161 ft / 1,268 m 338.88° 334.06° Asphalt 380 ft / 116 m 90 ft / 27 m

Popular Alternatives